createdAt,value
2018-12-19T00:02:12.572Z,2.60
2018-12-19T00:04:40.776Z,2.60
2018-12-19T00:07:08.971Z,2.60
2018-12-19T00:09:37.145Z,2.60
2018-12-19T00:12:05.345Z,2.60
2018-12-19T00:14:33.528Z,2.60
2018-12-19T00:17:01.759Z,2.60
2018-12-19T00:19:29.996Z,2.70
2018-12-19T00:21:58.197Z,2.60
2018-12-19T00:24:26.392Z,2.60
2018-12-19T00:26:54.563Z,2.60
2018-12-19T00:29:22.656Z,2.60
2018-12-19T00:31:50.849Z,2.60
2018-12-19T00:34:19.016Z,2.60
2018-12-19T00:36:47.248Z,2.60
2018-12-19T00:39:16.109Z,2.60
2018-12-19T00:41:44.399Z,2.50
2018-12-19T00:44:12.592Z,2.50
2018-12-19T00:46:40.879Z,2.50
2018-12-19T00:49:09.178Z,2.50
2018-12-19T00:51:37.352Z,2.50
2018-12-19T00:54:05.536Z,2.50
2018-12-19T00:56:33.728Z,2.50
2018-12-19T00:59:01.927Z,2.50
2018-12-19T01:01:30.099Z,2.60
2018-12-19T01:03:58.299Z,2.60
2018-12-19T01:06:26.648Z,2.60
2018-12-19T01:08:54.772Z,2.60
2018-12-19T01:11:22.948Z,2.60
2018-12-19T01:13:51.140Z,2.60
2018-12-19T01:16:19.320Z,2.60
2018-12-19T01:18:47.516Z,2.60
2018-12-19T01:21:15.692Z,2.60
2018-12-19T01:23:43.891Z,2.70
2018-12-19T01:26:12.063Z,2.70
2018-12-19T01:28:40.172Z,2.70
2018-12-19T01:31:08.340Z,2.70
2018-12-19T01:33:36.807Z,2.70
2018-12-19T01:36:04.926Z,2.70
2018-12-19T01:38:33.110Z,2.70
2018-12-19T01:41:01.395Z,2.70
2018-12-19T01:43:29.580Z,2.70
2018-12-19T01:45:57.776Z,2.70
2018-12-19T01:48:25.956Z,2.70
2018-12-19T01:50:54.166Z,2.70
2018-12-19T01:53:22.331Z,2.70
2018-12-19T01:55:50.804Z,2.70
2018-12-19T01:58:19.008Z,2.70
2018-12-19T02:00:47.195Z,2.70
2018-12-19T02:03:15.385Z,2.70
2018-12-19T02:05:43.580Z,2.70
2018-12-19T02:08:11.757Z,2.70
2018-12-19T02:10:39.956Z,2.70
2018-12-19T02:13:08.128Z,2.70
2018-12-19T02:15:36.449Z,2.70
2018-12-19T02:18:04.555Z,2.70
2018-12-19T02:20:32.704Z,2.70
2018-12-19T02:23:00.900Z,2.70
2018-12-19T02:25:29.085Z,2.70
2018-12-19T02:27:57.264Z,2.70
2018-12-19T02:30:25.448Z,2.70
2018-12-19T02:32:53.643Z,2.70
2018-12-19T02:35:21.748Z,2.70
2018-12-19T02:37:49.905Z,2.70
2018-12-19T02:40:18.208Z,2.70
2018-12-19T02:42:46.385Z,2.70
2018-12-19T02:45:14.594Z,2.70
2018-12-19T02:47:42.761Z,2.70
2018-12-19T02:50:11.054Z,2.70
2018-12-19T02:52:40.259Z,2.70
2018-12-19T02:55:08.443Z,2.70
2018-12-19T02:57:36.650Z,2.70
2018-12-19T03:00:05.700Z,2.70
2018-12-19T03:02:33.828Z,2.70
2018-12-19T03:05:02.005Z,2.80
2018-12-19T03:07:30.325Z,2.80
2018-12-19T03:09:58.494Z,2.80
2018-12-19T03:12:26.715Z,2.80
2018-12-19T03:14:54.857Z,2.80
2018-12-19T03:17:23.164Z,2.80
2018-12-19T03:19:51.331Z,2.80
2018-12-19T03:22:19.528Z,2.80
2018-12-19T03:24:47.699Z,2.80
2018-12-19T03:27:15.911Z,2.90
2018-12-19T03:29:44.095Z,2.90
2018-12-19T03:32:12.278Z,2.90
2018-12-19T03:34:40.563Z,2.90
2018-12-19T03:37:08.756Z,2.90
2018-12-19T03:39:36.927Z,2.90
2018-12-19T03:42:05.127Z,2.80
2018-12-19T03:44:33.413Z,2.80
2018-12-19T03:47:01.703Z,2.80
2018-12-19T03:49:29.979Z,2.80
2018-12-19T03:51:58.356Z,2.90
2018-12-19T03:54:26.756Z,2.80
2018-12-19T03:56:55.036Z,2.90
2018-12-19T03:59:23.255Z,2.90
2018-12-19T04:01:51.428Z,2.90
2018-12-19T04:04:19.632Z,2.90
2018-12-19T04:06:48.023Z,2.90
2018-12-19T04:09:16.208Z,2.90
2018-12-19T04:11:44.485Z,2.90
2018-12-19T04:14:12.797Z,2.90
2018-12-19T04:16:41.073Z,2.90
2018-12-19T04:19:09.365Z,2.90
2018-12-19T04:21:37.652Z,2.90
2018-12-19T04:24:05.845Z,2.90
2018-12-19T04:26:34.022Z,2.90
2018-12-19T04:29:02.216Z,2.90
2018-12-19T04:31:30.399Z,2.90
2018-12-19T04:33:58.691Z,2.90
2018-12-19T04:36:26.877Z,2.90
2018-12-19T04:38:55.144Z,2.90
2018-12-19T04:41:23.251Z,2.90
2018-12-19T04:43:51.440Z,2.90
2018-12-19T04:46:19.615Z,2.90
2018-12-19T04:48:48.027Z,2.90
2018-12-19T04:51:16.302Z,2.90
2018-12-19T04:53:44.500Z,2.90
2018-12-19T04:56:12.670Z,2.90
2018-12-19T04:58:40.868Z,2.90
2018-12-19T05:01:09.043Z,2.90
2018-12-19T05:03:37.252Z,2.90
2018-12-19T05:06:05.429Z,2.90
2018-12-19T05:08:33.711Z,2.90
2018-12-19T05:11:01.904Z,2.90
2018-12-19T05:13:30.088Z,2.90
2018-12-19T05:15:58.280Z,2.90
2018-12-19T05:18:26.464Z,3.00
2018-12-19T05:20:54.751Z,3.00
2018-12-19T05:23:22.939Z,3.00
2018-12-19T05:25:51.233Z,3.00
2018-12-19T05:28:19.412Z,3.10
2018-12-19T05:30:47.523Z,3.10
2018-12-19T05:33:15.683Z,3.10
2018-12-19T05:35:43.870Z,3.10
2018-12-19T05:38:12.064Z,3.10
2018-12-19T05:40:40.256Z,3.10
2018-12-19T05:43:08.433Z,3.20
2018-12-19T05:45:36.625Z,3.20
2018-12-19T05:48:04.808Z,3.20
2018-12-19T05:50:33.076Z,3.10
2018-12-19T05:53:01.280Z,3.20
2018-12-19T05:55:29.572Z,3.20
2018-12-19T05:57:57.752Z,3.20
2018-12-19T06:00:25.955Z,3.20
2018-12-19T06:02:54.139Z,3.20
2018-12-19T06:05:22.427Z,3.20
2018-12-19T06:07:50.613Z,3.20
2018-12-19T06:10:25.997Z,3.20
2018-12-19T06:12:48.923Z,3.20
2018-12-19T06:15:17.116Z,3.20
2018-12-19T06:17:45.304Z,3.20
2018-12-19T06:20:13.492Z,3.20
2018-12-19T06:22:41.671Z,3.20
2018-12-19T06:25:09.899Z,3.20
2018-12-19T06:27:38.145Z,3.20
2018-12-19T06:30:06.331Z,3.20
2018-12-19T06:32:35.557Z,3.20
2018-12-19T06:35:03.805Z,3.20
2018-12-19T06:37:31.939Z,3.20
2018-12-19T06:40:00.112Z,3.30
2018-12-19T06:42:29.328Z,3.30
2018-12-19T06:44:57.536Z,3.30
2018-12-19T06:47:25.713Z,3.40
2018-12-19T06:49:53.988Z,3.40
2018-12-19T06:52:22.172Z,3.40
2018-12-19T06:54:50.359Z,3.40
2018-12-19T06:57:18.552Z,3.40
2018-12-19T06:59:46.728Z,3.40
2018-12-19T07:02:14.928Z,3.40
2018-12-19T07:04:43.124Z,3.40
2018-12-19T07:07:11.295Z,3.40
2018-12-19T07:09:39.471Z,3.40
2018-12-19T07:12:07.676Z,3.50
2018-12-19T07:14:38.348Z,3.40
2018-12-19T07:17:06.515Z,3.40
2018-12-19T07:19:34.784Z,3.40
2018-12-19T07:22:02.980Z,3.40
2018-12-19T07:24:31.159Z,3.50
2018-12-19T07:26:59.361Z,3.50
2018-12-19T07:29:27.532Z,3.50
2018-12-19T07:31:55.732Z,3.60
2018-12-19T07:34:23.914Z,3.60
2018-12-19T07:36:52.103Z,3.60
2018-12-19T07:39:21.308Z,3.70
2018-12-19T07:41:49.570Z,3.70
2018-12-19T07:44:17.676Z,3.70
2018-12-19T07:46:45.872Z,3.70
2018-12-19T07:49:14.052Z,3.70
2018-12-19T07:51:42.248Z,3.80
2018-12-19T07:54:10.427Z,3.80
2018-12-19T07:56:38.720Z,3.80
2018-12-19T07:59:06.904Z,3.80
2018-12-19T08:01:35.107Z,3.80
2018-12-19T08:04:03.774Z,3.80
2018-12-19T08:06:31.980Z,3.90
2018-12-19T08:09:00.168Z,3.80
2018-12-19T08:11:28.370Z,3.90
2018-12-19T08:13:56.542Z,3.80
2018-12-19T08:16:24.765Z,3.90
2018-12-19T08:18:52.915Z,3.90
2018-12-19T08:21:21.103Z,3.90
2018-12-19T08:23:49.417Z,3.90
2018-12-19T08:26:17.580Z,3.90
2018-12-19T08:28:45.775Z,3.90
2018-12-19T08:31:13.948Z,3.90
2018-12-19T08:33:42.155Z,4.00
2018-12-19T08:36:10.629Z,4.00
2018-12-19T08:38:38.824Z,4.00
2018-12-19T08:41:07.001Z,4.00
2018-12-19T08:43:35.212Z,4.00
2018-12-19T08:46:03.523Z,4.00
2018-12-19T08:48:31.687Z,4.00
2018-12-19T08:50:59.856Z,4.00
2018-12-19T08:53:28.053Z,4.10
2018-12-19T08:55:56.228Z,4.10
2018-12-19T08:58:24.447Z,4.10
2018-12-19T09:00:52.596Z,4.10
2018-12-19T09:03:20.798Z,4.10
2018-12-19T09:05:48.980Z,4.20
2018-12-19T09:08:17.165Z,4.20
2018-12-19T09:10:45.272Z,4.40
2018-12-19T09:13:13.445Z,4.50
2018-12-19T09:15:47.209Z,4.50
2018-12-19T09:18:15.348Z,4.50
2018-12-19T09:20:43.807Z,4.50
2018-12-19T09:23:12.024Z,4.50
2018-12-19T09:25:40.199Z,4.50
2018-12-19T09:28:08.776Z,4.50
2018-12-19T09:30:37.104Z,4.40
2018-12-19T09:33:05.283Z,4.50
2018-12-19T09:35:33.566Z,4.50
2018-12-19T09:38:01.760Z,4.50
2018-12-19T09:40:29.950Z,4.50
2018-12-19T09:42:58.132Z,4.50
2018-12-19T09:45:26.416Z,4.50
2018-12-19T09:47:54.609Z,4.50
2018-12-19T09:50:22.799Z,4.50
2018-12-19T09:52:50.900Z,4.50
2018-12-19T09:55:19.064Z,4.60
2018-12-19T09:57:47.256Z,4.50
2018-12-19T10:00:20.929Z,4.60
2018-12-19T10:02:49.475Z,4.60
2018-12-19T10:05:17.652Z,4.60
2018-12-19T10:07:45.832Z,4.60
2018-12-19T10:10:14.028Z,4.70
2018-12-19T10:12:42.205Z,4.80
2018-12-19T10:15:10.416Z,4.90
2018-12-19T10:17:40.987Z,4.90
2018-12-19T10:20:08.721Z,4.90
2018-12-19T10:22:36.905Z,4.80
2018-12-19T10:25:11.012Z,4.80
2018-12-19T10:27:39.214Z,4.90
2018-12-19T10:30:09.719Z,4.90
2018-12-19T10:32:38.994Z,4.90
2018-12-19T10:35:08.264Z,5.00
2018-12-19T10:37:36.495Z,5.00
2018-12-19T10:40:06.877Z,4.90
2018-12-19T10:42:35.100Z,4.90
2018-12-19T10:45:03.460Z,5.00
2018-12-19T10:47:31.672Z,4.90
2018-12-19T10:50:00.888Z,5.00
2018-12-19T10:52:29.076Z,5.00
2018-12-19T10:54:57.257Z,5.00
2018-12-19T10:57:25.359Z,5.10
2018-12-19T10:59:53.541Z,5.10
2018-12-19T11:02:21.711Z,5.10
2018-12-19T11:04:49.923Z,5.20
2018-12-19T11:07:18.192Z,5.20
2018-12-19T11:09:46.300Z,5.30
2018-12-19T11:12:14.580Z,5.40
2018-12-19T11:14:42.748Z,5.50
2018-12-19T11:17:11.327Z,5.50
2018-12-19T11:19:39.542Z,5.60
2018-12-19T11:22:10.704Z,5.60
2018-12-19T11:24:39.205Z,5.70
2018-12-19T11:27:07.380Z,5.70
2018-12-19T11:29:35.664Z,5.70
2018-12-19T11:32:03.955Z,5.70
2018-12-19T11:34:32.244Z,5.70
2018-12-19T11:37:00.453Z,5.70
2018-12-19T11:39:28.628Z,5.70
2018-12-19T11:41:56.813Z,5.60
2018-12-19T11:44:25.072Z,5.60
2018-12-19T11:46:54.121Z,5.60
2018-12-19T11:49:22.384Z,5.60
2018-12-19T11:51:50.619Z,5.60
2018-12-19T11:54:18.792Z,5.60
2018-12-19T11:56:46.960Z,5.60
2018-12-19T11:59:15.136Z,5.60
2018-12-19T12:01:43.336Z,5.60
2018-12-19T12:04:11.504Z,5.60
2018-12-19T12:06:39.723Z,5.60
2018-12-19T12:09:07.992Z,5.60
2018-12-19T12:11:36.210Z,5.60
2018-12-19T12:14:04.385Z,5.60
2018-12-19T12:16:32.660Z,5.60
2018-12-19T12:19:00.836Z,5.60
2018-12-19T12:21:29.045Z,5.60
2018-12-19T12:23:57.203Z,5.60
2018-12-19T12:26:25.441Z,5.60
2018-12-19T12:28:53.623Z,5.60
2018-12-19T12:31:21.727Z,5.60
2018-12-19T12:33:50.800Z,5.60
2018-12-19T12:36:19.557Z,5.60
2018-12-19T12:38:47.784Z,5.60
2018-12-19T12:41:15.970Z,5.70
2018-12-19T12:43:44.135Z,5.70
2018-12-19T12:46:12.428Z,5.70
2018-12-19T12:48:40.620Z,5.80
2018-12-19T12:51:08.810Z,5.80
2018-12-19T12:53:36.996Z,5.80
2018-12-19T12:56:05.176Z,5.80
2018-12-19T12:58:33.471Z,5.80
2018-12-19T13:01:01.657Z,5.80
2018-12-19T13:03:29.855Z,5.80
2018-12-19T13:05:58.047Z,5.80
2018-12-19T13:08:26.254Z,5.90
2018-12-19T13:10:54.407Z,5.90
2018-12-19T13:13:22.611Z,5.90
2018-12-19T13:15:50.879Z,5.90
2018-12-19T13:18:19.085Z,5.90
2018-12-19T13:20:47.668Z,5.90
2018-12-19T13:23:15.783Z,6.00
2018-12-19T13:25:43.928Z,6.10
2018-12-19T13:28:12.130Z,6.20
2018-12-19T13:30:40.312Z,6.20
2018-12-19T13:33:08.601Z,6.20
2018-12-19T13:35:36.784Z,6.30
2018-12-19T13:38:04.975Z,6.30
2018-12-19T13:40:33.147Z,6.30
2018-12-19T13:43:01.345Z,6.30
2018-12-19T13:45:29.544Z,6.30
2018-12-19T13:47:57.648Z,6.20
2018-12-19T13:50:25.844Z,6.20
2018-12-19T13:52:53.989Z,6.20
2018-12-19T13:55:22.184Z,6.20
2018-12-19T13:57:50.361Z,6.20
2018-12-19T14:00:20.584Z,6.20
2018-12-19T14:02:48.731Z,6.20
2018-12-19T14:05:16.992Z,6.20
2018-12-19T14:07:45.190Z,6.20
2018-12-19T14:10:13.348Z,6.20
2018-12-19T14:12:42.560Z,6.20
2018-12-19T14:15:10.747Z,6.20
2018-12-19T14:17:38.932Z,6.20
2018-12-19T14:20:07.697Z,6.20
2018-12-19T14:22:35.848Z,6.20
2018-12-19T14:25:04.129Z,6.20
2018-12-19T14:27:32.296Z,6.20
2018-12-19T14:30:00.494Z,6.20
2018-12-19T14:32:28.628Z,6.20
2018-12-19T14:34:56.753Z,6.20
2018-12-19T14:37:24.975Z,6.20
2018-12-19T14:39:53.140Z,6.20
2018-12-19T14:42:21.252Z,6.20
2018-12-19T14:44:49.464Z,6.20
2018-12-19T14:47:17.704Z,6.20
2018-12-19T14:49:45.952Z,6.20
2018-12-19T14:52:14.192Z,6.20
2018-12-19T14:54:42.363Z,6.10
2018-12-19T14:57:10.611Z,6.10
2018-12-19T14:59:38.824Z,6.10
2018-12-19T15:02:07.049Z,6.00
2018-12-19T15:04:35.492Z,6.00
2018-12-19T15:07:03.624Z,6.00
2018-12-19T15:09:31.854Z,6.00
2018-12-19T15:12:00.076Z,6.00
2018-12-19T15:14:28.276Z,6.00
2018-12-19T15:16:56.708Z,6.00
2018-12-19T15:19:24.828Z,6.00
2018-12-19T15:21:53.031Z,5.90
2018-12-19T15:24:21.231Z,6.00
2018-12-19T15:26:49.404Z,5.90
2018-12-19T15:29:17.597Z,5.90
2018-12-19T15:31:45.775Z,5.90
2018-12-19T15:34:13.959Z,5.90
2018-12-19T15:36:42.148Z,5.90
2018-12-19T15:39:10.328Z,5.80
2018-12-19T15:41:38.621Z,5.80
2018-12-19T15:44:06.795Z,5.80
2018-12-19T15:46:35.039Z,5.80
2018-12-19T15:49:03.296Z,5.80
2018-12-19T15:51:31.471Z,5.80
2018-12-19T15:53:59.647Z,5.80
2018-12-19T15:56:27.852Z,5.80
2018-12-19T15:58:56.023Z,5.80
2018-12-19T16:01:24.261Z,5.80
2018-12-19T16:03:52.392Z,5.80
2018-12-19T16:06:20.596Z,5.80
2018-12-19T16:08:48.808Z,5.80
2018-12-19T16:11:16.972Z,5.80
2018-12-19T16:13:45.324Z,5.70
2018-12-19T16:16:13.639Z,5.70
2018-12-19T16:18:41.842Z,5.70
2018-12-19T16:21:10.132Z,5.70
2018-12-19T16:23:38.324Z,5.70
2018-12-19T16:26:06.544Z,5.70
2018-12-19T16:28:34.687Z,5.70
2018-12-19T16:31:02.968Z,5.70
2018-12-19T16:33:31.080Z,5.70
2018-12-19T16:35:59.272Z,5.70
2018-12-19T16:38:27.424Z,5.60
2018-12-19T16:40:55.691Z,5.60
2018-12-19T16:43:23.820Z,5.60
2018-12-19T16:45:51.997Z,5.60
2018-12-19T16:48:20.279Z,5.60
2018-12-19T16:50:48.472Z,5.60
2018-12-19T16:53:16.660Z,5.60
2018-12-19T16:55:44.832Z,5.60
2018-12-19T16:58:13.023Z,5.60
2018-12-19T17:00:41.389Z,5.50
2018-12-19T17:03:09.512Z,5.50
2018-12-19T17:05:37.695Z,5.40
2018-12-19T17:08:05.992Z,5.40
2018-12-19T17:10:34.176Z,5.40
2018-12-19T17:13:02.343Z,5.30
2018-12-19T17:15:30.555Z,5.30
2018-12-19T17:17:58.828Z,5.30
2018-12-19T17:20:26.972Z,5.30
2018-12-19T17:22:55.103Z,5.20
2018-12-19T17:25:23.308Z,5.20
2018-12-19T17:27:51.488Z,5.10
2018-12-19T17:30:19.857Z,5.10
2018-12-19T17:32:49.195Z,5.10
2018-12-19T17:35:17.545Z,5.10
2018-12-19T17:37:48.890Z,5.10
2018-12-19T17:40:17.122Z,5.10
2018-12-19T17:42:45.316Z,5.00
2018-12-19T17:45:13.503Z,5.00
2018-12-19T17:47:41.680Z,5.00
2018-12-19T17:50:09.868Z,5.00
2018-12-19T17:52:38.071Z,5.00
2018-12-19T17:55:06.712Z,5.00
2018-12-19T17:57:34.839Z,5.00
2018-12-19T18:00:03.148Z,5.00
2018-12-19T18:02:31.316Z,5.00
2018-12-19T18:04:59.532Z,5.00
2018-12-19T18:07:27.687Z,5.00
2018-12-19T18:09:55.883Z,5.00
2018-12-19T18:12:24.137Z,5.00
2018-12-19T18:14:52.257Z,5.00
2018-12-19T18:17:20.450Z,5.00
2018-12-19T18:19:48.740Z,5.00
2018-12-19T18:22:17.019Z,5.00
2018-12-19T18:24:45.128Z,5.00
2018-12-19T18:27:13.300Z,5.00
2018-12-19T18:29:41.476Z,5.00
2018-12-19T18:32:09.660Z,5.00
2018-12-19T18:34:38.065Z,5.00
2018-12-19T18:37:06.239Z,5.00
2018-12-19T18:39:34.460Z,5.00
2018-12-19T18:42:02.659Z,5.00
2018-12-19T18:44:30.931Z,5.00
2018-12-19T18:46:59.100Z,5.00
2018-12-19T18:49:27.296Z,5.00
2018-12-19T18:51:55.464Z,5.00
2018-12-19T18:54:23.656Z,5.00
2018-12-19T18:56:51.839Z,5.10
2018-12-19T18:59:20.106Z,5.10
2018-12-19T19:01:48.585Z,5.10
2018-12-19T19:04:16.816Z,5.10
2018-12-19T19:06:45.000Z,5.20
2018-12-19T19:09:13.193Z,5.20
2018-12-19T19:11:41.363Z,5.20
2018-12-19T19:14:11.056Z,5.20
2018-12-19T19:16:39.249Z,5.30
2018-12-19T19:19:07.473Z,5.20
2018-12-19T19:21:35.688Z,5.20
2018-12-19T19:24:03.835Z,5.30
2018-12-19T19:26:32.036Z,5.30
2018-12-19T19:29:00.231Z,5.30
2018-12-19T19:31:28.415Z,5.30
2018-12-19T19:33:56.524Z,5.30
2018-12-19T19:36:24.749Z,5.30
2018-12-19T19:38:52.856Z,5.30
2018-12-19T19:41:21.059Z,5.30
2018-12-19T19:43:49.236Z,5.30
2018-12-19T19:46:17.451Z,5.30
2018-12-19T19:48:45.610Z,5.30
2018-12-19T19:51:16.921Z,5.30
2018-12-19T19:53:43.914Z,5.30
2018-12-19T19:56:12.147Z,5.30
2018-12-19T19:58:40.292Z,5.30
2018-12-19T20:01:08.487Z,5.40
2018-12-19T20:03:36.960Z,5.40
2018-12-19T20:06:05.175Z,5.40
2018-12-19T20:08:33.357Z,5.40
2018-12-19T20:11:01.548Z,5.40
2018-12-19T20:13:33.183Z,5.40
2018-12-19T20:15:59.864Z,5.40
2018-12-19T20:18:28.053Z,5.40
2018-12-19T20:20:56.236Z,5.40
2018-12-19T20:23:24.499Z,5.40
2018-12-19T20:25:52.616Z,5.40
2018-12-19T20:28:20.804Z,5.40
2018-12-19T20:30:49.001Z,5.40
2018-12-19T20:33:17.166Z,5.40
2018-12-19T20:35:45.396Z,5.40
2018-12-19T20:38:13.779Z,5.40
2018-12-19T20:40:41.948Z,5.40
2018-12-19T20:43:10.142Z,5.40
2018-12-19T20:45:38.308Z,5.40
2018-12-19T20:48:06.499Z,5.40
2018-12-19T20:50:34.672Z,5.40
2018-12-19T20:53:02.879Z,5.40
2018-12-19T20:55:31.154Z,5.40
2018-12-19T20:57:59.367Z,5.40
2018-12-19T21:00:27.634Z,5.40
2018-12-19T21:02:55.924Z,5.40
2018-12-19T21:05:24.107Z,5.40
2018-12-19T21:07:52.308Z,5.40
2018-12-19T21:10:20.484Z,5.40
2018-12-19T21:12:48.679Z,5.40
2018-12-19T21:15:16.868Z,5.40
2018-12-19T21:17:50.616Z,5.40
2018-12-19T21:20:19.886Z,5.30
2018-12-19T21:22:48.086Z,5.40
2018-12-19T21:25:16.266Z,5.30
2018-12-19T21:27:44.560Z,5.40
2018-12-19T21:30:12.736Z,5.40
2018-12-19T21:32:40.932Z,5.40
2018-12-19T21:35:09.390Z,5.40
2018-12-19T21:37:37.722Z,5.40
2018-12-19T21:40:05.892Z,5.40
2018-12-19T21:42:35.033Z,5.40
2018-12-19T21:45:03.237Z,5.40
2018-12-19T21:47:31.501Z,5.40
2018-12-19T21:49:59.852Z,5.40
2018-12-19T21:52:28.137Z,5.40
2018-12-19T21:54:56.357Z,5.50
2018-12-19T21:57:24.728Z,5.50
2018-12-19T21:59:52.979Z,5.50
2018-12-19T22:02:21.235Z,5.50
2018-12-19T22:04:49.530Z,5.50
2018-12-19T22:07:17.802Z,5.50
2018-12-19T22:09:46.098Z,5.50
2018-12-19T22:12:14.414Z,5.50
2018-12-19T22:14:42.878Z,5.50
2018-12-19T22:17:17.043Z,5.50
2018-12-19T22:19:45.268Z,5.50
2018-12-19T22:22:15.024Z,5.60
2018-12-19T22:24:43.204Z,5.50
2018-12-19T22:27:11.483Z,5.50
2018-12-19T22:29:39.781Z,5.60
2018-12-19T22:32:08.383Z,5.50
2018-12-19T22:34:36.660Z,5.50
2018-12-19T22:37:04.860Z,5.50
2018-12-19T22:39:33.128Z,5.50
2018-12-19T22:42:01.399Z,5.50
2018-12-19T22:44:29.699Z,5.50
2018-12-19T22:46:58.016Z,5.50
2018-12-19T22:49:26.248Z,5.50
2018-12-19T22:51:54.480Z,5.50
2018-12-19T22:54:22.672Z,5.50
2018-12-19T22:56:50.852Z,5.50
2018-12-19T22:59:19.158Z,5.50
2018-12-19T23:01:53.020Z,5.50
2018-12-19T23:04:21.275Z,5.60
2018-12-19T23:06:49.444Z,5.60
2018-12-19T23:09:17.673Z,5.60
2018-12-19T23:11:45.971Z,5.60
2018-12-19T23:14:15.544Z,5.60
2018-12-19T23:16:43.926Z,5.60
2018-12-19T23:19:12.216Z,5.60
2018-12-19T23:21:40.411Z,5.60
2018-12-19T23:24:08.695Z,5.60
2018-12-19T23:26:36.936Z,5.60
2018-12-19T23:29:05.177Z,5.50
2018-12-19T23:31:33.678Z,5.50
2018-12-19T23:34:01.967Z,5.50
2018-12-19T23:36:30.248Z,5.50
2018-12-19T23:38:58.628Z,5.50
2018-12-19T23:41:26.947Z,5.60
2018-12-19T23:43:55.164Z,5.50
2018-12-19T23:46:23.671Z,5.50
2018-12-19T23:48:51.821Z,5.50
2018-12-19T23:51:20.128Z,5.50
2018-12-19T23:53:48.487Z,5.50
2018-12-19T23:56:16.794Z,5.50
2018-12-19T23:58:45.048Z,5.60
